sensor_id;sensor_type;location;lat;lon;timestamp;P1;durP1;ratioP1;P2;durP2;ratioP2
21122;SDS011;10719;48.130;11.630;2022-07-01T00:02:13;11.07;;;3.00;;
21122;SDS011;10719;48.130;11.630;2022-07-01T00:04:39;9.35;;;3.22;;
21122;SDS011;10719;48.130;11.630;2022-07-01T00:07:05;9.35;;;3.20;;
21122;SDS011;10719;48.130;11.630;2022-07-01T00:09:31;10.15;;;3.95;;
21122;SDS011;10719;48.130;11.630;2022-07-01T00:11:56;12.18;;;3.40;;
21122;SDS011;10719;48.130;11.630;2022-07-01T00:14:22;9.55;;;4.28;;
21122;SDS011;10719;48.130;11.630;2022-07-01T00:16:48;7.68;;;3.63;;
21122;SDS011;10719;48.130;11.630;2022-07-01T00:19:14;11.02;;;4.30;;
21122;SDS011;10719;48.130;11.630;2022-07-01T00:21:40;10.43;;;4.05;;
21122;SDS011;10719;48.130;11.630;2022-07-01T00:24:06;11.10;;;3.97;;
21122;SDS011;10719;48.130;11.630;2022-07-01T00:26:31;8.68;;;4.15;;
21122;SDS011;10719;48.130;11.630;2022-07-01T00:28:57;10.98;;;4.05;;
21122;SDS011;10719;48.130;11.630;2022-07-01T00:31:23;10.15;;;3.92;;
21122;SDS011;10719;48.130;11.630;2022-07-01T00:33:48;14.95;;;3.92;;
21122;SDS011;10719;48.130;11.630;2022-07-01T00:36:14;12.48;;;3.67;;
21122;SDS011;10719;48.130;11.630;2022-07-01T00:38:39;9.52;;;3.38;;
21122;SDS011;10719;48.130;11.630;2022-07-01T00:41:05;9.35;;;3.90;;
21122;SDS011;10719;48.130;11.630;2022-07-01T00:43:34;8.20;;;3.38;;
21122;SDS011;10719;48.130;11.630;2022-07-01T00:46:01;6.68;;;3.10;;
21122;SDS011;10719;48.130;11.630;2022-07-01T00:48:27;8.68;;;3.40;;
21122;SDS011;10719;48.130;11.630;2022-07-01T00:50:53;6.38;;;2.85;;
21122;SDS011;10719;48.130;11.630;2022-07-01T00:53:19;10.35;;;3.05;;
21122;SDS011;10719;48.130;11.630;2022-07-01T00:55:45;9.85;;;3.20;;
21122;SDS011;10719;48.130;11.630;2022-07-01T00:58:11;6.78;;;2.60;;
21122;SDS011;10719;48.130;11.630;2022-07-01T01:00:36;6.70;;;2.33;;
21122;SDS011;10719;48.130;11.630;2022-07-01T01:03:06;5.53;;;2.28;;
21122;SDS011;10719;48.130;11.630;2022-07-01T01:05:35;5.78;;;2.28;;
21122;SDS011;10719;48.130;11.630;2022-07-01T01:08:01;5.35;;;1.80;;
21122;SDS011;10719;48.130;11.630;2022-07-01T01:10:27;7.13;;;2.05;;
21122;SDS011;10719;48.130;11.630;2022-07-01T01:12:53;5.97;;;2.13;;
21122;SDS011;10719;48.130;11.630;2022-07-01T01:15:20;4.45;;;1.80;;
21122;SDS011;10719;48.130;11.630;2022-07-01T01:17:46;6.05;;;2.10;;
21122;SDS011;10719;48.130;11.630;2022-07-01T01:20:14;3.75;;;1.70;;
21122;SDS011;10719;48.130;11.630;2022-07-01T01:22:43;3.33;;;1.30;;
21122;SDS011;10719;48.130;11.630;2022-07-01T01:25:10;4.00;;;1.60;;
21122;SDS011;10719;48.130;11.630;2022-07-01T01:27:36;3.00;;;1.40;;
21122;SDS011;10719;48.130;11.630;2022-07-01T01:30:05;5.47;;;1.30;;
21122;SDS011;10719;48.130;11.630;2022-07-01T01:32:33;5.97;;;1.50;;
21122;SDS011;10719;48.130;11.630;2022-07-01T01:34:59;2.35;;;1.08;;
21122;SDS011;10719;48.130;11.630;2022-07-01T01:37:24;2.25;;;1.20;;
21122;SDS011;10719;48.130;11.630;2022-07-01T01:39:50;1.38;;;0.90;;
21122;SDS011;10719;48.130;11.630;2022-07-01T01:42:16;2.13;;;0.93;;
21122;SDS011;10719;48.130;11.630;2022-07-01T01:44:41;1.58;;;0.90;;
21122;SDS011;10719;48.130;11.630;2022-07-01T01:47:07;5.53;;;1.08;;
21122;SDS011;10719;48.130;11.630;2022-07-01T01:49:32;1.58;;;0.85;;
21122;SDS011;10719;48.130;11.630;2022-07-01T01:51:58;1.95;;;0.82;;
21122;SDS011;10719;48.130;11.630;2022-07-01T01:54:25;2.38;;;0.95;;
21122;SDS011;10719;48.130;11.630;2022-07-01T01:56:51;1.13;;;0.77;;
21122;SDS011;10719;48.130;11.630;2022-07-01T01:59:16;1.50;;;0.95;;
21122;SDS011;10719;48.130;11.630;2022-07-01T02:01:42;2.78;;;0.80;;
21122;SDS011;10719;48.130;11.630;2022-07-01T02:04:08;3.95;;;1.17;;
21122;SDS011;10719;48.130;11.630;2022-07-01T02:06:33;2.22;;;1.08;;
21122;SDS011;10719;48.130;11.630;2022-07-01T02:08:59;4.57;;;1.00;;
21122;SDS011;10719;48.130;11.630;2022-07-01T02:11:24;2.80;;;1.00;;
21122;SDS011;10719;48.130;11.630;2022-07-01T02:13:50;1.98;;;0.75;;
21122;SDS011;10719;48.130;11.630;2022-07-01T02:16:16;3.85;;;1.00;;
21122;SDS011;10719;48.130;11.630;2022-07-01T02:18:41;2.80;;;1.00;;
21122;SDS011;10719;48.130;11.630;2022-07-01T02:21:07;1.35;;;0.70;;
21122;SDS011;10719;48.130;11.630;2022-07-01T02:23:32;2.10;;;0.98;;
21122;SDS011;10719;48.130;11.630;2022-07-01T02:25:58;1.77;;;0.85;;
21122;SDS011;10719;48.130;11.630;2022-07-01T02:28:24;3.70;;;0.85;;
21122;SDS011;10719;48.130;11.630;2022-07-01T02:30:49;3.55;;;1.02;;
21122;SDS011;10719;48.130;11.630;2022-07-01T02:33:15;1.08;;;0.90;;
21122;SDS011;10719;48.130;11.630;2022-07-01T02:35:40;1.73;;;1.00;;
21122;SDS011;10719;48.130;11.630;2022-07-01T02:38:07;1.85;;;0.98;;
21122;SDS011;10719;48.130;11.630;2022-07-01T02:40:33;1.33;;;1.02;;
21122;SDS011;10719;48.130;11.630;2022-07-01T02:43:02;2.15;;;1.10;;
21122;SDS011;10719;48.130;11.630;2022-07-01T02:45:29;2.25;;;1.20;;
21122;SDS011;10719;48.130;11.630;2022-07-01T02:47:54;2.50;;;1.10;;
21122;SDS011;10719;48.130;11.630;2022-07-01T02:50:20;2.70;;;1.00;;
21122;SDS011;10719;48.130;11.630;2022-07-01T02:52:46;3.38;;;1.50;;
21122;SDS011;10719;48.130;11.630;2022-07-01T02:55:12;2.83;;;1.00;;
21122;SDS011;10719;48.130;11.630;2022-07-01T02:57:39;1.80;;;0.90;;
21122;SDS011;10719;48.130;11.630;2022-07-01T03:00:07;1.77;;;1.23;;
21122;SDS011;10719;48.130;11.630;2022-07-01T03:02:34;1.75;;;0.85;;
21122;SDS011;10719;48.130;11.630;2022-07-01T03:05:00;0.95;;;0.80;;
21122;SDS011;10719;48.130;11.630;2022-07-01T03:07:26;3.42;;;1.00;;
21122;SDS011;10719;48.130;11.630;2022-07-01T03:09:52;4.03;;;1.27;;
21122;SDS011;10719;48.130;11.630;2022-07-01T03:12:18;1.42;;;1.10;;
21122;SDS011;10719;48.130;11.630;2022-07-01T03:14:59;3.83;;;1.00;;
21122;SDS011;10719;48.130;11.630;2022-07-01T03:17:25;1.55;;;0.88;;
21122;SDS011;10719;48.130;11.630;2022-07-01T03:19:52;3.05;;;1.20;;
21122;SDS011;10719;48.130;11.630;2022-07-01T03:22:19;2.55;;;0.95;;
21122;SDS011;10719;48.130;11.630;2022-07-01T03:24:46;1.65;;;1.00;;
21122;SDS011;10719;48.130;11.630;2022-07-01T03:27:12;2.70;;;1.00;;
21122;SDS011;10719;48.130;11.630;2022-07-01T03:29:38;5.07;;;1.20;;
21122;SDS011;10719;48.130;11.630;2022-07-01T03:32:04;3.85;;;1.52;;
21122;SDS011;10719;48.130;11.630;2022-07-01T03:34:30;3.28;;;1.25;;
21122;SDS011;10719;48.130;11.630;2022-07-01T03:36:56;2.40;;;1.20;;
21122;SDS011;10719;48.130;11.630;2022-07-01T03:39:22;2.40;;;1.13;;
21122;SDS011;10719;48.130;11.630;2022-07-01T03:41:47;3.15;;;1.02;;
21122;SDS011;10719;48.130;11.630;2022-07-01T03:44:13;2.65;;;1.10;;
21122;SDS011;10719;48.130;11.630;2022-07-01T03:46:39;2.42;;;0.90;;
21122;SDS011;10719;48.130;11.630;2022-07-01T03:49:04;3.58;;;1.33;;
21122;SDS011;10719;48.130;11.630;2022-07-01T03:51:30;3.63;;;1.13;;
21122;SDS011;10719;48.130;11.630;2022-07-01T03:53:55;1.73;;;0.93;;
21122;SDS011;10719;48.130;11.630;2022-07-01T03:56:40;3.65;;;1.30;;
21122;SDS011;10719;48.130;11.630;2022-07-01T03:59:05;3.33;;;1.10;;
21122;SDS011;10719;48.130;11.630;2022-07-01T04:01:31;6.47;;;1.30;;
21122;SDS011;10719;48.130;11.630;2022-07-01T04:03:57;1.55;;;1.13;;
21122;SDS011;10719;48.130;11.630;2022-07-01T04:06:22;3.55;;;1.17;;
21122;SDS011;10719;48.130;11.630;2022-07-01T04:08:48;2.90;;;1.10;;
21122;SDS011;10719;48.130;11.630;2022-07-01T04:11:15;1.30;;;1.00;;
21122;SDS011;10719;48.130;11.630;2022-07-01T04:13:41;3.63;;;1.13;;
21122;SDS011;10719;48.130;11.630;2022-07-01T04:16:18;2.15;;;1.10;;
21122;SDS011;10719;48.130;11.630;2022-07-01T04:18:45;1.70;;;1.00;;
21122;SDS011;10719;48.130;11.630;2022-07-01T04:21:12;2.70;;;1.20;;
21122;SDS011;10719;48.130;11.630;2022-07-01T04:23:56;1.80;;;1.15;;
21122;SDS011;10719;48.130;11.630;2022-07-01T04:26:25;3.28;;;1.30;;
21122;SDS011;10719;48.130;11.630;2022-07-01T04:28:51;2.17;;;1.20;;
21122;SDS011;10719;48.130;11.630;2022-07-01T04:31:18;1.42;;;0.90;;
21122;SDS011;10719;48.130;11.630;2022-07-01T04:33:44;2.58;;;1.20;;
21122;SDS011;10719;48.130;11.630;2022-07-01T04:36:10;1.95;;;1.00;;
21122;SDS011;10719;48.130;11.630;2022-07-01T04:38:36;1.75;;;1.20;;
21122;SDS011;10719;48.130;11.630;2022-07-01T04:41:02;3.80;;;1.23;;
21122;SDS011;10719;48.130;11.630;2022-07-01T04:43:46;3.30;;;1.00;;
21122;SDS011;10719;48.130;11.630;2022-07-01T04:46:11;2.00;;;1.17;;
21122;SDS011;10719;48.130;11.630;2022-07-01T04:48:37;1.55;;;1.00;;
21122;SDS011;10719;48.130;11.630;2022-07-01T04:51:04;1.63;;;1.20;;
21122;SDS011;10719;48.130;11.630;2022-07-01T04:53:30;5.03;;;1.20;;
21122;SDS011;10719;48.130;11.630;2022-07-01T04:55:56;3.65;;;1.35;;
21122;SDS011;10719;48.130;11.630;2022-07-01T04:58:21;4.18;;;1.50;;
21122;SDS011;10719;48.130;11.630;2022-07-01T05:00:47;3.35;;;1.23;;
21122;SDS011;10719;48.130;11.630;2022-07-01T05:03:13;3.85;;;1.27;;
21122;SDS011;10719;48.130;11.630;2022-07-01T05:05:39;3.13;;;1.23;;
21122;SDS011;10719;48.130;11.630;2022-07-01T05:08:05;5.53;;;1.92;;
21122;SDS011;10719;48.130;11.630;2022-07-01T05:10:30;2.50;;;1.10;;
21122;SDS011;10719;48.130;11.630;2022-07-01T05:12:56;2.50;;;1.50;;
21122;SDS011;10719;48.130;11.630;2022-07-01T05:15:22;3.13;;;1.13;;
21122;SDS011;10719;48.130;11.630;2022-07-01T05:17:47;2.08;;;1.23;;
21122;SDS011;10719;48.130;11.630;2022-07-01T05:20:31;2.65;;;1.20;;
21122;SDS011;10719;48.130;11.630;2022-07-01T05:23:15;4.80;;;1.30;;
21122;SDS011;10719;48.130;11.630;2022-07-01T05:25:41;3.25;;;0.93;;
21122;SDS011;10719;48.130;11.630;2022-07-01T05:28:06;1.83;;;0.93;;
21122;SDS011;10719;48.130;11.630;2022-07-01T05:30:32;2.75;;;0.85;;
21122;SDS011;10719;48.130;11.630;2022-07-01T05:32:57;3.38;;;1.20;;
21122;SDS011;10719;48.130;11.630;2022-07-01T05:35:23;4.82;;;1.58;;
21122;SDS011;10719;48.130;11.630;2022-07-01T05:37:49;4.78;;;2.47;;
21122;SDS011;10719;48.130;11.630;2022-07-01T05:40:14;4.25;;;1.70;;
21122;SDS011;10719;48.130;11.630;2022-07-01T05:42:40;3.63;;;1.40;;
21122;SDS011;10719;48.130;11.630;2022-07-01T05:45:06;8.45;;;1.35;;
21122;SDS011;10719;48.130;11.630;2022-07-01T05:47:32;2.10;;;1.05;;
21122;SDS011;10719;48.130;11.630;2022-07-01T05:49:57;2.63;;;1.27;;
21122;SDS011;10719;48.130;11.630;2022-07-01T05:52:23;2.20;;;1.38;;
21122;SDS011;10719;48.130;11.630;2022-07-01T05:54:48;3.10;;;1.20;;
21122;SDS011;10719;48.130;11.630;2022-07-01T05:57:14;2.50;;;1.10;;
21122;SDS011;10719;48.130;11.630;2022-07-01T05:59:40;5.88;;;1.30;;
21122;SDS011;10719;48.130;11.630;2022-07-01T06:02:06;3.17;;;1.17;;
21122;SDS011;10719;48.130;11.630;2022-07-01T06:04:31;2.72;;;1.20;;
21122;SDS011;10719;48.130;11.630;2022-07-01T06:06:58;2.92;;;1.27;;
21122;SDS011;10719;48.130;11.630;2022-07-01T06:09:24;1.83;;;1.20;;
21122;SDS011;10719;48.130;11.630;2022-07-01T06:11:50;1.58;;;1.10;;
21122;SDS011;10719;48.130;11.630;2022-07-01T06:14:15;5.47;;;1.30;;
21122;SDS011;10719;48.130;11.630;2022-07-01T06:16:41;4.13;;;1.52;;
21122;SDS011;10719;48.130;11.630;2022-07-01T06:19:07;3.63;;;1.20;;
21122;SDS011;10719;48.130;11.630;2022-07-01T06:21:32;2.10;;;1.05;;
21122;SDS011;10719;48.130;11.630;2022-07-01T06:23:58;2.60;;;1.02;;
21122;SDS011;10719;48.130;11.630;2022-07-01T06:26:24;1.10;;;0.90;;
21122;SDS011;10719;48.130;11.630;2022-07-01T06:28:49;3.70;;;1.17;;
21122;SDS011;10719;48.130;11.630;2022-07-01T06:31:15;1.60;;;0.98;;
21122;SDS011;10719;48.130;11.630;2022-07-01T06:33:41;1.80;;;0.90;;
21122;SDS011;10719;48.130;11.630;2022-07-01T06:36:06;3.05;;;0.98;;
21122;SDS011;10719;48.130;11.630;2022-07-01T06:38:32;4.05;;;1.25;;
21122;SDS011;10719;48.130;11.630;2022-07-01T06:40:58;1.80;;;1.10;;
21122;SDS011;10719;48.130;11.630;2022-07-01T06:43:42;1.45;;;0.85;;
21122;SDS011;10719;48.130;11.630;2022-07-01T06:46:08;2.40;;;1.20;;
21122;SDS011;10719;48.130;11.630;2022-07-01T06:48:34;4.57;;;1.00;;
21122;SDS011;10719;48.130;11.630;2022-07-01T06:51:00;4.30;;;1.20;;
21122;SDS011;10719;48.130;11.630;2022-07-01T06:53:26;3.60;;;1.08;;
21122;SDS011;10719;48.130;11.630;2022-07-01T06:55:52;3.80;;;1.70;;
21122;SDS011;10719;48.130;11.630;2022-07-01T06:58:18;2.38;;;1.00;;
21122;SDS011;10719;48.130;11.630;2022-07-01T07:00:44;5.93;;;1.15;;
21122;SDS011;10719;48.130;11.630;2022-07-01T07:03:09;3.13;;;1.30;;
21122;SDS011;10719;48.130;11.630;2022-07-01T07:05:35;3.38;;;1.13;;
21122;SDS011;10719;48.130;11.630;2022-07-01T07:08:00;3.15;;;1.30;;
21122;SDS011;10719;48.130;11.630;2022-07-01T07:10:27;2.08;;;1.10;;
21122;SDS011;10719;48.130;11.630;2022-07-01T07:12:52;5.68;;;1.40;;
21122;SDS011;10719;48.130;11.630;2022-07-01T07:15:18;3.45;;;1.27;;
21122;SDS011;10719;48.130;11.630;2022-07-01T07:17:44;2.08;;;1.20;;
21122;SDS011;10719;48.130;11.630;2022-07-01T07:20:10;1.98;;;1.20;;
21122;SDS011;10719;48.130;11.630;2022-07-01T07:22:35;2.25;;;1.27;;
21122;SDS011;10719;48.130;11.630;2022-07-01T07:25:01;1.58;;;1.10;;
21122;SDS011;10719;48.130;11.630;2022-07-01T07:27:27;2.60;;;1.30;;
21122;SDS011;10719;48.130;11.630;2022-07-01T07:29:53;3.53;;;1.50;;
21122;SDS011;10719;48.130;11.630;2022-07-01T07:32:19;4.00;;;1.25;;
21122;SDS011;10719;48.130;11.630;2022-07-01T07:34:45;3.30;;;1.45;;
21122;SDS011;10719;48.130;11.630;2022-07-01T07:37:10;4.47;;;1.38;;
21122;SDS011;10719;48.130;11.630;2022-07-01T07:39:36;2.80;;;1.38;;
21122;SDS011;10719;48.130;11.630;2022-07-01T07:42:02;3.97;;;1.20;;
21122;SDS011;10719;48.130;11.630;2022-07-01T07:44:29;2.65;;;1.30;;
21122;SDS011;10719;48.130;11.630;2022-07-01T07:46:54;4.45;;;1.40;;
21122;SDS011;10719;48.130;11.630;2022-07-01T07:49:23;2.47;;;1.40;;
21122;SDS011;10719;48.130;11.630;2022-07-01T07:51:49;4.47;;;1.70;;
21122;SDS011;10719;48.130;11.630;2022-07-01T07:54:15;4.00;;;1.40;;
21122;SDS011;10719;48.130;11.630;2022-07-01T07:56:41;3.95;;;1.65;;
21122;SDS011;10719;48.130;11.630;2022-07-01T07:59:06;5.53;;;1.70;;
21122;SDS011;10719;48.130;11.630;2022-07-01T08:01:32;5.10;;;2.05;;
21122;SDS011;10719;48.130;11.630;2022-07-01T08:03:58;4.82;;;2.17;;
21122;SDS011;10719;48.130;11.630;2022-07-01T08:06:23;4.07;;;2.03;;
21122;SDS011;10719;48.130;11.630;2022-07-01T08:08:49;8.07;;;3.15;;
21122;SDS011;10719;48.130;11.630;2022-07-01T08:11:15;6.30;;;2.78;;
21122;SDS011;10719;48.130;11.630;2022-07-01T08:13:41;7.50;;;3.20;;
21122;SDS011;10719;48.130;11.630;2022-07-01T08:16:07;7.13;;;2.75;;
21122;SDS011;10719;48.130;11.630;2022-07-01T08:18:33;8.80;;;2.95;;
21122;SDS011;10719;48.130;11.630;2022-07-01T08:20:59;5.85;;;3.10;;
21122;SDS011;10719;48.130;11.630;2022-07-01T08:23:25;9.65;;;3.40;;
21122;SDS011;10719;48.130;11.630;2022-07-01T08:25:50;12.50;;;3.15;;
21122;SDS011;10719;48.130;11.630;2022-07-01T08:28:16;9.73;;;2.72;;
21122;SDS011;10719;48.130;11.630;2022-07-01T08:30:42;4.82;;;1.55;;
21122;SDS011;10719;48.130;11.630;2022-07-01T08:33:09;3.63;;;1.23;;
21122;SDS011;10719;48.130;11.630;2022-07-01T08:35:35;3.40;;;1.13;;
21122;SDS011;10719;48.130;11.630;2022-07-01T08:38:01;2.17;;;0.95;;
21122;SDS011;10719;48.130;11.630;2022-07-01T08:40:28;5.30;;;1.15;;
21122;SDS011;10719;48.130;11.630;2022-07-01T08:42:55;4.07;;;1.70;;
21122;SDS011;10719;48.130;11.630;2022-07-01T08:45:26;3.22;;;1.20;;
21122;SDS011;10719;48.130;11.630;2022-07-01T08:47:53;3.63;;;1.40;;
21122;SDS011;10719;48.130;11.630;2022-07-01T08:50:22;5.55;;;1.52;;
21122;SDS011;10719;48.130;11.630;2022-07-01T08:52:49;2.80;;;1.45;;
21122;SDS011;10719;48.130;11.630;2022-07-01T08:55:14;4.90;;;1.30;;
21122;SDS011;10719;48.130;11.630;2022-07-01T08:57:40;2.58;;;1.40;;
21122;SDS011;10719;48.130;11.630;2022-07-01T09:00:06;5.40;;;1.23;;
21122;SDS011;10719;48.130;11.630;2022-07-01T09:05:25;5.20;;;1.52;;
21122;SDS011;10719;48.130;11.630;2022-07-01T09:07:59;4.97;;;1.70;;
21122;SDS011;10719;48.130;11.630;2022-07-01T09:10:26;3.00;;;1.50;;
21122;SDS011;10719;48.130;11.630;2022-07-01T09:12:56;3.20;;;1.30;;
21122;SDS011;10719;48.130;11.630;2022-07-01T09:17:52;2.95;;;1.20;;
21122;SDS011;10719;48.130;11.630;2022-07-01T09:20:29;3.85;;;1.15;;
21122;SDS011;10719;48.130;11.630;2022-07-01T09:23:03;1.42;;;0.93;;
21122;SDS011;10719;48.130;11.630;2022-07-01T09:28:11;4.57;;;1.20;;
21122;SDS011;10719;48.130;11.630;2022-07-01T09:30:49;3.72;;;1.30;;
21122;SDS011;10719;48.130;11.630;2022-07-01T09:33:20;2.42;;;1.13;;
21122;SDS011;10719;48.130;11.630;2022-07-01T09:35:48;3.45;;;1.20;;
21122;SDS011;10719;48.130;11.630;2022-07-01T09:38:15;5.22;;;1.25;;
21122;SDS011;10719;48.130;11.630;2022-07-01T09:43:34;4.03;;;1.20;;
21122;SDS011;10719;48.130;11.630;2022-07-01T09:46:09;1.70;;;1.00;;
21122;SDS011;10719;48.130;11.630;2022-07-01T09:51:02;5.90;;;1.20;;
21122;SDS011;10719;48.130;11.630;2022-07-01T09:53:30;1.95;;;1.30;;
21122;SDS011;10719;48.130;11.630;2022-07-01T09:55:55;1.98;;;1.15;;
21122;SDS011;10719;48.130;11.630;2022-07-01T09:58:21;6.93;;;1.20;;
21122;SDS011;10719;48.130;11.630;2022-07-01T10:00:47;4.75;;;1.30;;
21122;SDS011;10719;48.130;11.630;2022-07-01T10:03:13;1.20;;;0.95;;
21122;SDS011;10719;48.130;11.630;2022-07-01T10:05:41;1.58;;;0.95;;
21122;SDS011;10719;48.130;11.630;2022-07-01T10:14:09;5.05;;;1.33;;
21122;SDS011;10719;48.130;11.630;2022-07-01T10:16:37;1.70;;;1.10;;
21122;SDS011;10719;48.130;11.630;2022-07-01T10:19:27;4.45;;;1.10;;
21122;SDS011;10719;48.130;11.630;2022-07-01T10:21:53;2.13;;;1.40;;
21122;SDS011;10719;48.130;11.630;2022-07-01T10:24:22;2.65;;;1.52;;
21122;SDS011;10719;48.130;11.630;2022-07-01T10:26:48;4.82;;;1.30;;
21122;SDS011;10719;48.130;11.630;2022-07-01T10:29:27;1.55;;;1.13;;
21122;SDS011;10719;48.130;11.630;2022-07-01T10:31:53;3.78;;;1.33;;
21122;SDS011;10719;48.130;11.630;2022-07-01T10:34:20;1.40;;;0.88;;
21122;SDS011;10719;48.130;11.630;2022-07-01T10:36:47;1.90;;;0.93;;
21122;SDS011;10719;48.130;11.630;2022-07-01T10:39:26;3.25;;;0.95;;
21122;SDS011;10719;48.130;11.630;2022-07-01T10:44:18;2.45;;;1.13;;
21122;SDS011;10719;48.130;11.630;2022-07-01T10:47:01;2.50;;;1.00;;
21122;SDS011;10719;48.130;11.630;2022-07-01T10:52:08;3.03;;;1.40;;
21122;SDS011;10719;48.130;11.630;2022-07-01T11:02:15;2.53;;;1.35;;
21122;SDS011;10719;48.130;11.630;2022-07-01T11:04:54;2.00;;;1.42;;
21122;SDS011;10719;48.130;11.630;2022-07-01T11:07:25;4.20;;;1.30;;
21122;SDS011;10719;48.130;11.630;2022-07-01T11:09:53;2.63;;;1.20;;
21122;SDS011;10719;48.130;11.630;2022-07-01T11:12:20;3.67;;;2.13;;
21122;SDS011;10719;48.130;11.630;2022-07-01T11:14:48;2.88;;;1.58;;
21122;SDS011;10719;48.130;11.630;2022-07-01T11:17:14;2.45;;;1.52;;
21122;SDS011;10719;48.130;11.630;2022-07-01T11:19:40;1.92;;;1.50;;
21122;SDS011;10719;48.130;11.630;2022-07-01T11:22:23;2.08;;;1.33;;
21122;SDS011;10719;48.130;11.630;2022-07-01T11:24:56;2.95;;;1.75;;
21122;SDS011;10719;48.130;11.630;2022-07-01T11:27:24;3.47;;;1.70;;
21122;SDS011;10719;48.130;11.630;2022-07-01T11:29:57;3.45;;;1.80;;
21122;SDS011;10719;48.130;11.630;2022-07-01T11:32:27;2.53;;;1.58;;
21122;SDS011;10719;48.130;11.630;2022-07-01T11:34:53;2.97;;;1.65;;
21122;SDS011;10719;48.130;11.630;2022-07-01T11:37:19;4.22;;;2.25;;
21122;SDS011;10719;48.130;11.630;2022-07-01T11:40:07;4.10;;;1.90;;
21122;SDS011;10719;48.130;11.630;2022-07-01T11:42:34;7.18;;;2.00;;
21122;SDS011;10719;48.130;11.630;2022-07-01T11:45:00;5.43;;;2.20;;
21122;SDS011;10719;48.130;11.630;2022-07-01T11:47:26;3.22;;;1.90;;
21122;SDS011;10719;48.130;11.630;2022-07-01T11:49:52;8.93;;;2.10;;
21122;SDS011;10719;48.130;11.630;2022-07-01T11:52:19;6.65;;;2.03;;
21122;SDS011;10719;48.130;11.630;2022-07-01T11:54:47;4.32;;;2.08;;
21122;SDS011;10719;48.130;11.630;2022-07-01T11:57:15;3.78;;;1.98;;
21122;SDS011;10719;48.130;11.630;2022-07-01T11:59:41;4.07;;;2.15;;
21122;SDS011;10719;48.130;11.630;2022-07-01T12:02:09;3.50;;;2.15;;
21122;SDS011;10719;48.130;11.630;2022-07-01T12:04:36;5.45;;;2.30;;
21122;SDS011;10719;48.130;11.630;2022-07-01T12:07:06;11.88;;;2.38;;
21122;SDS011;10719;48.130;11.630;2022-07-01T12:09:32;4.68;;;1.90;;
21122;SDS011;10719;48.130;11.630;2022-07-01T12:11:59;4.32;;;2.40;;
21122;SDS011;10719;48.130;11.630;2022-07-01T12:14:34;4.57;;;2.72;;
21122;SDS011;10719;48.130;11.630;2022-07-01T12:17:04;4.60;;;2.00;;
21122;SDS011;10719;48.130;11.630;2022-07-01T12:19:40;3.60;;;2.20;;
21122;SDS011;10719;48.130;11.630;2022-07-01T12:22:12;3.88;;;1.90;;
21122;SDS011;10719;48.130;11.630;2022-07-01T12:24:49;5.95;;;2.10;;
21122;SDS011;10719;48.130;11.630;2022-07-01T12:27:16;6.82;;;2.15;;
21122;SDS011;10719;48.130;11.630;2022-07-01T12:32:22;8.27;;;2.40;;
21122;SDS011;10719;48.130;11.630;2022-07-01T12:37:20;4.25;;;2.13;;
21122;SDS011;10719;48.130;11.630;2022-07-01T12:44:50;5.38;;;2.33;;
21122;SDS011;10719;48.130;11.630;2022-07-01T12:55:37;5.20;;;2.70;;
21122;SDS011;10719;48.130;11.630;2022-07-01T12:58:04;5.88;;;2.65;;
21122;SDS011;10719;48.130;11.630;2022-07-01T13:00:31;4.18;;;2.67;;
21122;SDS011;10719;48.130;11.630;2022-07-01T13:02:58;5.68;;;2.80;;
21122;SDS011;10719;48.130;11.630;2022-07-01T13:05:24;8.50;;;3.30;;
21122;SDS011;10719;48.130;11.630;2022-07-01T13:07:50;7.10;;;2.95;;
21122;SDS011;10719;48.130;11.630;2022-07-01T13:10:17;9.57;;;3.78;;
21122;SDS011;10719;48.130;11.630;2022-07-01T13:12:43;7.65;;;3.65;;
21122;SDS011;10719;48.130;11.630;2022-07-01T13:15:11;10.45;;;4.20;;
21122;SDS011;10719;48.130;11.630;2022-07-01T13:17:38;9.18;;;4.63;;
21122;SDS011;10719;48.130;11.630;2022-07-01T13:20:04;10.68;;;4.53;;
21122;SDS011;10719;48.130;11.630;2022-07-01T13:22:30;10.18;;;4.35;;
21122;SDS011;10719;48.130;11.630;2022-07-01T13:24:56;9.75;;;4.43;;
21122;SDS011;10719;48.130;11.630;2022-07-01T13:27:22;16.35;;;5.10;;
21122;SDS011;10719;48.130;11.630;2022-07-01T13:29:50;11.13;;;5.47;;
21122;SDS011;10719;48.130;11.630;2022-07-01T13:32:16;8.57;;;4.32;;
21122;SDS011;10719;48.130;11.630;2022-07-01T13:34:41;11.77;;;5.03;;
21122;SDS011;10719;48.130;11.630;2022-07-01T13:37:07;11.35;;;5.05;;
21122;SDS011;10719;48.130;11.630;2022-07-01T13:39:33;10.35;;;5.07;;
21122;SDS011;10719;48.130;11.630;2022-07-01T13:41:58;8.80;;;4.70;;
21122;SDS011;10719;48.130;11.630;2022-07-01T13:44:24;9.15;;;4.22;;
21122;SDS011;10719;48.130;11.630;2022-07-01T13:46:50;10.70;;;4.82;;
21122;SDS011;10719;48.130;11.630;2022-07-01T13:49:16;10.88;;;4.60;;
21122;SDS011;10719;48.130;11.630;2022-07-01T13:51:42;10.52;;;5.78;;
21122;SDS011;10719;48.130;11.630;2022-07-01T13:54:07;10.90;;;5.53;;
21122;SDS011;10719;48.130;11.630;2022-07-01T13:56:33;9.93;;;5.13;;
21122;SDS011;10719;48.130;11.630;2022-07-01T13:58:59;11.57;;;5.95;;
21122;SDS011;10719;48.130;11.630;2022-07-01T14:01:25;11.68;;;5.85;;
21122;SDS011;10719;48.130;11.630;2022-07-01T14:03:51;10.52;;;4.97;;
21122;SDS011;10719;48.130;11.630;2022-07-01T14:06:17;8.27;;;4.72;;
21122;SDS011;10719;48.130;11.630;2022-07-01T14:08:44;11.45;;;4.70;;
21122;SDS011;10719;48.130;11.630;2022-07-01T14:11:10;9.25;;;4.60;;
21122;SDS011;10719;48.130;11.630;2022-07-01T14:13:36;9.75;;;5.15;;
21122;SDS011;10719;48.130;11.630;2022-07-01T14:16:02;8.00;;;4.35;;
21122;SDS011;10719;48.130;11.630;2022-07-01T14:18:31;8.35;;;4.07;;
21122;SDS011;10719;48.130;11.630;2022-07-01T14:21:00;10.10;;;4.30;;
21122;SDS011;10719;48.130;11.630;2022-07-01T14:23:27;12.32;;;5.13;;
21122;SDS011;10719;48.130;11.630;2022-07-01T14:25:53;11.65;;;4.93;;
21122;SDS011;10719;48.130;11.630;2022-07-01T14:28:18;11.25;;;5.15;;
21122;SDS011;10719;48.130;11.630;2022-07-01T14:30:44;10.32;;;5.38;;
21122;SDS011;10719;48.130;11.630;2022-07-01T14:33:10;10.70;;;5.40;;
21122;SDS011;10719;48.130;11.630;2022-07-01T14:35:36;10.30;;;5.63;;
21122;SDS011;10719;48.130;11.630;2022-07-01T14:38:02;10.90;;;4.88;;
21122;SDS011;10719;48.130;11.630;2022-07-01T14:40:30;10.63;;;5.30;;
21122;SDS011;10719;48.130;11.630;2022-07-01T14:42:56;11.52;;;5.53;;
21122;SDS011;10719;48.130;11.630;2022-07-01T14:45:21;10.15;;;5.70;;
21122;SDS011;10719;48.130;11.630;2022-07-01T14:47:47;12.52;;;6.00;;
21122;SDS011;10719;48.130;11.630;2022-07-01T14:50:13;11.38;;;6.20;;
21122;SDS011;10719;48.130;11.630;2022-07-01T14:52:38;9.95;;;5.03;;
21122;SDS011;10719;48.130;11.630;2022-07-01T14:55:04;10.68;;;5.30;;
21122;SDS011;10719;48.130;11.630;2022-07-01T14:57:30;11.80;;;5.18;;
21122;SDS011;10719;48.130;11.630;2022-07-01T14:59:56;5.70;;;3.17;;
21122;SDS011;10719;48.130;11.630;2022-07-01T15:02:23;5.55;;;2.88;;
21122;SDS011;10719;48.130;11.630;2022-07-01T15:04:49;5.75;;;3.00;;
21122;SDS011;10719;48.130;11.630;2022-07-01T15:07:15;6.90;;;3.22;;
21122;SDS011;10719;48.130;11.630;2022-07-01T15:09:41;8.60;;;4.30;;
21122;SDS011;10719;48.130;11.630;2022-07-01T15:12:07;7.72;;;4.20;;
21122;SDS011;10719;48.130;11.630;2022-07-01T15:14:33;8.63;;;5.15;;
21122;SDS011;10719;48.130;11.630;2022-07-01T15:16:58;8.73;;;4.75;;
21122;SDS011;10719;48.130;11.630;2022-07-01T15:19:25;7.43;;;3.95;;
21122;SDS011;10719;48.130;11.630;2022-07-01T15:21:52;9.00;;;4.07;;
21122;SDS011;10719;48.130;11.630;2022-07-01T15:24:18;6.90;;;3.83;;